Tiempo atmosférico en la estación meteorológica de Motril, Puerto, Granada (3 m.)



Fecha
DESCASC
Temp. máxima en grados centígrados (hora)
DESCASC
Temp. mínima en grados centígrados (hora)
DESCASC
Temp. media en grados centígrados
DESCASC
Racha de viento máxima en m/sg (hora)
DESCASC
Velocidad máxima media en intervalos de 10 minutos(hora)
DESCASC
Precipitaciones diarias en mm
DESCASC
Precipitaciones de 00:00 a 06:00 en mm
DESCASC
Precipitaciones de 06:00 a 12:00 en mm
DESCASC
Precipitaciones de 12:00 a 18:00 en mm
DESCASC
Precipitaciones de 18:00 a 24:00 en mm
DESCASC
15-08-2019 31.2 (13:20) 21.4 (07:40) 26.3 4.72 (17:30) 2.78 (16:50) 0 0 0 0 0
14-08-2019 29.1 (17:20) 23.7 (00:00) 26.4 6.67 (11:10) 5 (11:20) 0 0 0 0 0
13-08-2019 33.3 (12:50) 21.2 (00:00) 27.3 7.5 (19:50) 5.56 (19:50) 0 0 0 0 0
12-08-2019 31.2 (09:30) 20.6 (00:00) 25.9 8.33 (08:10) 3.89 (10:20) 0 0 0 0 0
11-08-2019 31.4 (12:20) 21.3 (00:00) 26.3 7.22 (09:30) 4.17 (00:10) 0 0 0 0 0
10-08-2019 32.6 (17:20) 21 (00:00) 26.8 6.94 (10:30) 5.28 (10:40) 0 0 0 0 0
09-08-2019 30.8 (14:40) 20.9 (00:00) 25.8 5.83 (15:50) 3.06 (09:50) 0 0 0 0 0
08-08-2019 30.1 (14:20) 21.3 (00:00) 25.7 5.28 (04:20) 3.33 (04:20) 2.2 2.2 0 0 0
07-08-2019 32.9 (15:00) 21.3 (00:00) 27.1 6.11 (15:20) 3.33 (11:20) 0 0 0 0 0
06-08-2019 30 (18:50) 21.7 (00:00) 25.9 4.72 (18:20) 2.78 (18:00) 0 0 0 0 0
05-08-2019 -- (--) -- (--) -- -- (--) -- (--) -- 0 0 -- --
04-08-2019 30.9 (12:50) 23 (00:00) 26.9 6.39 (06:00) 3.89 (06:40) 0 0 0 0 0
03-08-2019 30.8 (12:10) 22 (00:00) 26.4 5 (09:20) 4.17 (09:20) 0 0 0 0 0
02-08-2019 29 (17:50) 22.6 (00:00) 25.8 5 (10:40) 4.17 (10:30) 0 0 0 0 0
01-08-2019 31.3 (13:00) 21.4 (00:00) 26.3 5.83 (16:00) 3.33 (15:40) 0 0 0 0 0
31-07-2019 31.5 (12:50) 22.4 (00:00) 26.9 7.78 (04:50) 4.72 (04:40) 0 0 0 0 0
30-07-2019 29.4 (13:50) 19.2 (00:00) 24.3 7.5 (21:40) 6.11 (21:40) 0 0 0 0 0
29-07-2019 28 (18:00) 19 (00:00) 23.5 3.89 (13:50) 2.78 (23:30) 0 0 0 0 0
28-07-2019 28.1 (12:30) 20.5 (00:00) 24.3 9.72 (14:30) 4.72 (14:50) 0 0 0 0 0
27-07-2019 28.7 (13:40) 24 (00:00) 26.4 17.5 (17:10) 10.83 (16:50) 0 0 0 0 0
26-07-2019 29.8 (17:10) 20.6 (00:00) 25.2 16.94 (18:10) 10.83 (18:50) 0 0 0 0 0
25-07-2019 33.1 (13:00) 22.5 (00:00) 27.8 5 (15:00) 3.06 (15:30) 0 0 0 0 0
24-07-2019 32.3 (12:40) 21.9 (00:00) 27.1 5.56 (14:40) 3.33 (14:20) 0 0 0 0 0
23-07-2019 30.2 (12:10) 22.9 (00:00) 26.6 14.17 (03:20) 5.83 (03:20) 0 0 0 0 0
22-07-2019 31.1 (14:00) 22.9 (00:00) 27 7.5 (17:40) 4.17 (18:30) 0 0 0 0 0
21-07-2019 30.7 (11:30) 22.5 (00:00) 26.6 5.28 (23:59) 3.33 (16:20) 0 0 0 0 0
20-07-2019 30.8 (12:40) 21.5 (00:00) 26.1 5.28 (10:40) 3.06 (10:30) 0 0 0 0 0
19-07-2019 30.2 (18:10) 20.8 (00:00) 25.5 6.11 (20:50) 3.33 (20:10) 0 0 0 0 0

Gráficas

Temp. máximas Temp. mínimas Temp. medias Precipitaciones Rachas de viento máximas Velocidades máximas media en intervalos de 10 minutos

Datos horarios

Fecha y hora oficial Temperatura (ºC) Velocidad del viento (km/h) Dirección del viento Racha (km/h) Dirección de racha Precipitación (mm) Presión (hPa) Tendencia (hPa) Humedad (%)
2019-08-17 23:00:00 24.3 0 Calma 6 Noroeste 0 -- -- 84
2019-08-17 22:00:00 25.2 4 Noroeste 10 Oeste 0 -- -- 81
2019-08-17 21:00:00 25.7 6 Oeste 14 Oeste 0 -- -- 78
2019-08-17 20:00:00 26.5 7 Sudoeste 15 Oeste 0 -- -- 76
2019-08-17 19:00:00 28.6 6 Oeste 15 Sudoeste 0 -- -- 70
2019-08-17 18:00:00 28.1 8 Sudoeste 14 Sudoeste 0 -- -- 70
2019-08-17 17:00:00 28.9 8 Sudoeste 15 Sudoeste 0 -- -- 68
2019-08-17 16:00:00 30 6 Sur 12 Sur 0 -- -- 65
2019-08-17 15:00:00 28.9 8 Sur 14 Sur 0 -- -- 67
2019-08-17 14:00:00 30.6 7 Sur 14 Sudoeste 0 -- -- 62
2019-08-17 13:00:00 30.6 6 Sur 11 Sudoeste 0 -- -- 63
2019-08-17 12:00:00 30.4 6 Sur 10 Sur 0 -- -- 62
2019-08-17 11:00:00 29.4 5 Sudoeste 9 Sur 0 -- -- 65
2019-08-17 10:00:00 27.2 3 Sudeste 5 Sudeste 0 -- -- 75
2019-08-17 09:00:00 23.7 0 Calma 4 Norte 0 -- -- 77
2019-08-17 08:00:00 21.4 0 Calma 3 Nordeste 0 -- -- 81
2019-08-17 07:00:00 21.4 0 Calma 4 Norte 0 -- -- 80
2019-08-17 06:00:00 22 0 Calma 4 Norte 0 -- -- 81
2019-08-17 05:00:00 22.5 3 Noroeste 4 Noroeste 0 -- -- 79
2019-08-17 04:00:00 22.5 5 Este 9 Este 0 -- -- 80
2019-08-17 03:00:00 22.7 2 Este 4 Este 0 -- -- 81
2019-08-17 02:00:00 23.6 3 Norte 5 Norte 0 -- -- 81
2019-08-17 01:00:00 23.6 2 Nordeste 4 Este 0 -- -- 81
2019-08-17 00:00:00 24.1 0 Calma 5 Sudeste 0 -- -- 80
2019-08-16 23:00:00 25.2 3 Noroeste 6 Oeste 0 -- -- 75
2019-08-16 22:00:00 25.6 4 Oeste 8 Oeste 0 -- -- 72
2019-08-16 21:00:00 26.2 5 Sudoeste 9 Oeste 0 -- -- 71
2019-08-16 20:00:00 27.9 6 Sudoeste 10 Sudoeste 0 -- -- 68
2019-08-16 19:00:00 28.3 6 Sudoeste 12 Sudoeste 0 -- -- 66
2019-08-16 18:00:00 28.7 8 Sudoeste 14 Sudoeste 0 -- -- 60
2019-08-16 17:00:00 29.5 8 Sudoeste 14 Sudoeste 0 -- -- 57
2019-08-16 16:00:00 30.7 6 Sudoeste 14 Sudoeste 0 -- -- 56
2019-08-16 15:00:00 30.2 7 Sudoeste 13 Sudoeste 0 -- -- 61
2019-08-16 14:00:00 32.2 5 Sudoeste 14 Sudoeste 0 -- -- 50
2019-08-16 13:00:00 30.8 9 Sudoeste 13 Sudoeste 0 -- -- 45
2019-08-16 12:00:00 31.1 5 Sudeste 12 Sudeste 0 -- -- 48
2019-08-16 11:00:00 31.3 5 Sur 7 Sudoeste 0 -- -- 45
2019-08-16 10:00:00 30.6 0 Calma 3 Nordeste 0 -- -- 46
2019-08-16 09:00:00 26.1 0 Calma 2 Este 0 -- -- 57
2019-08-16 08:00:00 22.1 2 Noroeste 6 Norte 0 -- -- 70
2019-08-16 07:00:00 21.5 0 Calma 5 Norte 0 -- -- 77
2019-08-16 06:00:00 21.8 3 Norte 4 Norte 0 -- -- 78
2019-08-16 05:00:00 22 0 Calma 5 Oeste 0 -- -- 79
2019-08-16 04:00:00 22.3 2 Sudeste 4 Nordeste 0 -- -- 81
2019-08-16 03:00:00 22.6 0 Calma 2 Norte 0 -- -- 82
2019-08-16 02:00:00 23.3 0 Calma 3 Nordeste 0 -- -- 82
2019-08-16 01:00:00 23.7 0 Calma 5 Sur 0 -- -- 83
2019-08-16 00:00:00 24.3 0 Calma 3 Sudoeste 0 -- -- 77
2019-08-15 23:00:00 24.9 0 Calma 4 Norte 0 -- -- 72
2019-08-15 22:00:00 25.8 3 Sudoeste 5 Sudoeste 0 -- -- 71
2019-08-15 21:00:00 26.6 3 Oeste 11 Sudoeste 0 -- -- 67
2019-08-15 20:00:00 27.8 8 Sudoeste 12 Sudoeste 0 -- -- 66
2019-08-15 19:00:00 29.7 5 Sudoeste 14 Oeste 0 -- -- 58
2019-08-15 18:00:00 27.5 8 Sudoeste 17 Sudoeste 0 -- -- 69
2019-08-15 17:00:00 28.4 8 Sudoeste 15 Sudoeste 0 -- -- 66
2019-08-15 16:00:00 29.6 9 Sudoeste 16 Sur 0 -- -- 63
2019-08-15 15:00:00 29.7 8 Sudoeste 15 Sudoeste 0 -- -- 62
2019-08-15 14:00:00 30.1 8 Sudoeste 16 Sudoeste 0 -- -- 62
2019-08-15 13:00:00 30.9 7 Sudoeste 13 Sur 0 -- -- 58
2019-08-15 12:00:00 29.5 9 Sur 13 Sur 0 -- -- 61
2019-08-15 11:00:00 29.3 6 Sur 9 Sur 0 -- -- 60
2019-08-15 10:00:00 28.5 3 Sudoeste 6 Sudoeste 0 -- -- 64
2019-08-15 09:00:00 25.9 0 Calma 4 Sudeste 0 -- -- 76
2019-08-15 08:00:00 21.6 0 Calma 2 Nordeste 0 -- -- 87
2019-08-15 07:00:00 21.6 0 Calma 3 Nordeste 0 -- -- 86
2019-08-15 06:00:00 21.8 0 Calma 5 Nordeste 0 -- -- 87
2019-08-15 05:00:00 22.1 0 Calma 5 Nordeste 0 -- -- 86
2019-08-15 04:00:00 22.5 3 Norte 5 Norte 0 -- -- 86
2019-08-15 03:00:00 22.6 4 Este 5 Este 0 -- -- 86
2019-08-15 02:00:00 22.9 0 Calma 5 Sudeste 0 -- -- 85
2019-08-15 01:00:00 23.3 2 Sudeste 4 Sudeste 0 -- -- 85
2019-08-15 00:00:00 24.2 0 Calma 4 Sudeste 0 -- -- 84
2019-08-14 23:00:00 24.9 2 Sur 5 Sudoeste 0 -- -- 81
2019-08-14 22:00:00 25.5 3 Oeste 6 Oeste 0 -- -- 77
2019-08-14 21:00:00 25.9 4 Sudoeste 10 Sudoeste 0 -- -- 76
2019-08-14 20:00:00 27.6 5 Sudoeste 10 Sudoeste 0 -- -- 71
2019-08-14 19:00:00 27.7 5 Sur 10 Sur 0 -- -- 72
2019-08-14 18:00:00 27.5 7 Sur 10 Sur 0 -- -- 71
2019-08-14 17:00:00 28.5 8 Sur 13 Sur 0 -- -- 68
2019-08-14 16:00:00 28.6 9 Sur 16 Sur 0 -- -- 67
2019-08-14 15:00:00 28.4 10 Sur 15 Sudeste 0 -- -- 68
2019-08-14 14:00:00 27.3 12 Sudeste 19 Sudeste 0 -- -- 72
2019-08-14 13:00:00 28.5 10 Sudeste 18 Sudeste 0 -- -- 67
2019-08-14 12:00:00 26.6 15 Sudeste 24 Sudeste 0 -- -- 73
2019-08-14 11:00:00 26.4 16 Sudeste 21 Sudeste 0 -- -- 73
2019-08-14 10:00:00 27.8 6 Sur 9 Sur 0 -- -- 71
2019-08-14 09:00:00 26.4 3 Sur 8 Este 0 -- -- 79
2019-08-14 08:00:00 23.7 5 Este 13 Sudeste 0 -- -- 88
2019-08-14 07:00:00 23.9 6 Sudeste 13 Sudeste 0 -- -- 87
2019-08-14 06:00:00 23.9 6 Sudeste 12 Sudeste 0 -- -- 89
2019-08-14 05:00:00 24 10 Sudeste 15 Sudeste 0 -- -- 88
2019-08-14 04:00:00 24.4 9 Sudeste 12 Sudeste 0 -- -- 86
2019-08-14 03:00:00 24.6 8 Sudeste 14 Este 0 -- -- 84
2019-08-14 02:00:00 25.1 7 Este 12 Sudeste 0 -- -- 82
2019-08-14 01:00:00 25 6 Este 16 Este 0 -- -- 81
2019-08-14 00:00:00 25.2 10 Este 19 Sudeste 0 -- -- 81
2019-08-13 23:00:00 25.4 13 Sudeste 17 Este 0 -- -- 79
2019-08-13 22:00:00 25.5 2 Oeste 22 Sudeste 0 -- -- 80
2019-08-13 21:00:00 25.5 15 Sudeste 24 Sudeste 0 -- -- 80
2019-08-13 20:00:00 26 18 Sudeste 27 Sudeste 0 -- -- 77
2019-08-13 19:00:00 27.8 14 Sur 21 Sur 0 -- -- 67
2019-08-13 18:00:00 28.9 6 Sur 19 Sudoeste 0 -- -- 62
2019-08-13 17:00:00 29.9 9 Sudoeste 17 Sudoeste 0 -- -- 58
2019-08-13 16:00:00 29.7 9 Sur 18 Sudoeste 0 -- -- 61
2019-08-13 15:00:00 29.9 9 Sudoeste 19 Sudoeste 0 -- -- 56
2019-08-13 14:00:00 30.6 11 Sudoeste 17 Sudoeste 0 -- -- 54
2019-08-13 13:00:00 31.7 10 Sudoeste 20 Oeste 0 -- -- 48
2019-08-13 12:00:00 31.6 12 Oeste 24 Sudoeste 0 -- -- 52
2019-08-13 11:00:00 28.6 9 Sudoeste 17 Sudoeste 0 -- -- 59
2019-08-13 10:00:00 30.8 3 Sudoeste 6 Sudoeste 0 -- -- 46
2019-08-13 09:00:00 26.8 0 Calma 5 Norte 0 -- -- 61
2019-08-13 08:00:00 21.5 0 Calma 4 Norte 0 -- -- 74
2019-08-13 07:00:00 21.5 0 Calma 5 Sudeste 0 -- -- 74
2019-08-13 06:00:00 22.2 0 Calma 5 Sudeste 0 -- -- 72
2019-08-13 05:00:00 22.9 5 Noroeste 13 Noroeste 0 -- -- 69
2019-08-13 04:00:00 23.1 3 Noroeste 9 Sur 0 -- -- 73
2019-08-13 03:00:00 23.3 5 Sudoeste 10 Sudoeste 0 -- -- 60
2019-08-13 02:00:00 23.8 5 Noroeste 18 Este 0 -- -- 65
2019-08-13 01:00:00 25.2 7 Este 21 Este 0 -- -- 72
2019-08-13 00:00:00 24.1 3 Noroeste 14 Sudeste 0 -- -- 68
2019-08-12 23:00:00 23.4 3 Oeste 9 Noroeste 0 -- -- 65
2019-08-12 22:00:00 24 3 Oeste 6 Oeste 0 -- -- 64
2019-08-12 21:00:00 24.4 4 Sudoeste 9 Sudoeste 0 -- -- 63
2019-08-12 20:00:00 26.2 6 Sudoeste 17 Sudeste 0 -- -- 59
2019-08-12 19:00:00 26.1 6 Sudoeste 13 Sur 0 -- -- 62
2019-08-12 18:00:00 25.4 4 Sudoeste 14 Sur 0 -- -- 65
2019-08-12 17:00:00 24.4 4 Sur 11 Sudeste 0 -- -- 73
2019-08-12 16:00:00 25.6 5 Sur 9 Sur 0 -- -- 62
2019-08-12 15:00:00 25.2 5 Sur 11 Sudoeste 0 -- -- 58
2019-08-12 14:00:00 26.2 3 Sur 11 Sudoeste 0 -- -- 56
2019-08-12 13:00:00 26.5 8 Sudoeste 17 Sur 0 -- -- 55
2019-08-12 12:00:00 26.6 9 Sur 24 Sudeste 0 -- -- 58
2019-08-12 11:00:00 27.6 8 Sudoeste 22 Sudoeste 0 -- -- 50
2019-08-12 10:00:00 28.7 10 Oeste 23 Sudoeste 0 -- -- 50
2019-08-12 09:00:00 30 6 Noroeste 30 Noroeste 0 -- -- 22
2019-08-12 08:00:00 26.7 12 Noroeste 20 Noroeste 0 -- -- 25
2019-08-12 07:00:00 25.5 8 Noroeste 19 Noroeste 0 -- -- 29
2019-08-12 06:00:00 21.3 4 Oeste 14 Oeste 0 -- -- 66
2019-08-12 05:00:00 21.9 4 Sur 12 Sur 0 -- -- 82
2019-08-12 04:00:00 22.3 4 Sudoeste 17 Sur 0 -- -- 79
2019-08-12 03:00:00 23.5 11 Sur 19 Sur 0 -- -- 71
2019-08-12 02:00:00 22.7 10 Sudoeste 17 Sudoeste 0 -- -- 74
2019-08-12 01:00:00 22.5 4 Noroeste 12 Oeste 0 -- -- 72
2019-08-12 00:00:00 23.1 5 Noroeste 15 Noroeste 0 -- -- 69
2019-08-11 23:00:00 23.9 7 Oeste 16 Oeste 0 -- -- 66
2019-08-11 22:00:00 24.8 7 Oeste 15 Oeste 0 -- -- 60
2019-08-11 21:00:00 26.2 6 Oeste 13 Oeste 0 -- -- 52
2019-08-11 20:00:00 27.6 6 Sudoeste 10 Sudoeste 0 -- -- 53
2019-08-11 19:00:00 28 6 Sudoeste 10 Sudoeste 0 -- -- 50
2019-08-11 18:00:00 26.1 7 Sudeste 11 Sur 0 -- -- 61
2019-08-11 17:00:00 29.6 6 Sudoeste 15 Sudoeste 0 -- -- 45
2019-08-11 16:00:00 29 6 Sudoeste 13 Sudoeste 0 -- -- 46
2019-08-11 15:00:00 27.3 5 Sur 13 Sudoeste 0 -- -- 56
2019-08-11 14:00:00 28.7 8 Sur 15 Sur 0 -- -- 51
2019-08-11 13:00:00 30 5 Sur 19 Oeste 0 -- -- 49
2019-08-11 12:00:00 30 8 Sudoeste 17 Oeste 0 -- -- 46
2019-08-11 11:00:00 27.1 6 Sur 22 Sudoeste 0 -- -- 60
2019-08-11 10:00:00 27.8 11 Oeste 26 Oeste 0 -- -- 62
2019-08-11 09:00:00 24.1 7 Noroeste 15 Oeste 0 -- -- 82
2019-08-11 08:00:00 21.9 5 Oeste 10 Oeste 0 -- -- 90
2019-08-11 07:00:00 21.8 3 Noroeste 5 Oeste 0 -- -- 89
2019-08-11 06:00:00 21.9 2 Norte 4 Sur 0 -- -- 89
2019-08-11 05:00:00 22.2 2 Sudeste 8 Sur 0 -- -- 88
2019-08-11 04:00:00 22.4 4 Sudeste 10 Sudeste 0 -- -- 87
2019-08-11 03:00:00 22.8 0 Calma 9 Sudeste 0 -- -- 86
2019-08-11 02:00:00 24.1 4 Oeste 9 Oeste 0 -- -- 80
2019-08-11 01:00:00 23.5 3 Noroeste 21 Sudeste 0 -- -- 85
2019-08-11 00:00:00 22.8 14 Sudeste 21 Sudeste 0 -- -- 85
2019-08-10 23:00:00 24.1 2 Este 6 Oeste 0 -- -- 77
2019-08-10 22:00:00 25.8 3 Oeste 9 Oeste 0 -- -- 72
2019-08-10 21:00:00 25.9 3 Oeste 9 Sudeste 0 -- -- 72
2019-08-10 20:00:00 27.4 8 Sur 17 Oeste 0 -- -- 65
2019-08-10 19:00:00 31.7 4 Oeste 19 Oeste 0 -- -- 46
2019-08-10 18:00:00 29.9 5 Oeste 18 Sudoeste 0 -- -- 54
2019-08-10 17:00:00 31.7 10 Oeste 18 Oeste 0 -- -- 48
2019-08-10 16:00:00 29.3 10 Sudoeste 16 Sur 0 -- -- 58
2019-08-10 15:00:00 28.7 10 Sudoeste 17 Sudoeste 0 -- -- 61
2019-08-10 14:00:00 28.3 11 Sudoeste 16 Sudoeste 0 -- -- 65
2019-08-10 13:00:00 27.9 7 Sudoeste 14 Sur 0 -- -- 66
2019-08-10 12:00:00 27.1 9 Sur 15 Sudoeste 0 -- -- 70
2019-08-10 11:00:00 24 13 Sudeste 25 Sudeste 0 -- -- 80
2019-08-10 10:00:00 27.2 5 Sudoeste 20 Oeste 0 -- -- 68
2019-08-10 09:00:00 25.7 9 Sudoeste 18 Oeste 0 -- -- 67
2019-08-10 08:00:00 21.6 4 Oeste 11 Oeste 0 -- -- 86
2019-08-10 07:00:00 21.1 0 Calma 8 Nordeste 0 -- -- 87
2019-08-10 06:00:00 21.7 0 Calma 5 Nordeste 0 -- -- 85
2019-08-10 05:00:00 22 3 Nordeste 12 Oeste 0 -- -- 84
2019-08-10 04:00:00 22.5 3 Noroeste 8 Noroeste 0 -- -- 83
2019-08-10 03:00:00 22.4 2 Noroeste 12 Oeste 0 -- -- 82
2019-08-10 02:00:00 22.9 3 Norte 9 Oeste 0 -- -- 81
2019-08-10 01:00:00 23.6 4 Oeste 9 Oeste 0 -- -- 78
2019-08-10 00:00:00 23.9 4 Sudoeste 10 Oeste 0 -- -- 75
2019-08-09 23:00:00 24.7 7 Noroeste 12 Noroeste 0 -- -- 71
2019-08-09 22:00:00 24.9 0 Calma 9 Oeste 0 -- -- 71
2019-08-09 21:00:00 25.4 5 Oeste 14 Oeste 0 -- -- 71
2019-08-09 20:00:00 27.9 7 Oeste 17 Sudoeste 0 -- -- 59
2019-08-09 19:00:00 27.9 8 Sudoeste 14 Sudoeste 0 -- -- 61
2019-08-09 18:00:00 28.7 7 Sudoeste 15 Sudoeste 0 -- -- 59
2019-08-09 17:00:00 28.4 8 Sudoeste 18 Sudoeste 0 -- -- 60
2019-08-09 16:00:00 29.8 7 Sudoeste 21 Oeste 0 -- -- 53
2019-08-09 15:00:00 29.2 10 Sudoeste 19 Oeste 0 -- -- 56
2019-08-09 14:00:00 29.7 8 Sudoeste 13 Sudoeste 0 -- -- 59
2019-08-09 13:00:00 29.3 8 Sudoeste 17 Sudoeste 0 -- -- 62
2019-08-09 12:00:00 30 7 Sudoeste 16 Sudoeste 0 -- -- 59
2019-08-09 11:00:00 29.5 9 Oeste 17 Oeste 0 -- -- 51
2019-08-09 10:00:00 27.4 10 Oeste 17 Noroeste 0 -- -- 64
2019-08-09 09:00:00 24.6 5 Noroeste 11 Oeste 0 -- -- 75
2019-08-09 08:00:00 20.9 0 Calma 5 Norte 0 -- -- 87
2019-08-09 07:00:00 21.2 0 Calma 4 Noroeste 0 -- -- 87
2019-08-09 06:00:00 21.8 2 Nordeste 7 Norte 0 -- -- 86
2019-08-09 05:00:00 22.3 2 Noroeste 7 Oeste 0 -- -- 83
2019-08-09 04:00:00 21 5 Oeste 15 Sudoeste 0 -- -- 75
2019-08-09 03:00:00 22.6 0 Calma 5 Noroeste 0 -- -- 87
2019-08-09 02:00:00 23 0 Calma 6 Oeste 0 -- -- 87
2019-08-09 01:00:00 24.1 5 Oeste 8 Oeste 0 -- -- 87
2019-08-09 00:00:00 24.3 4 Oeste 6 Oeste 0 -- -- 87
2019-08-08 23:00:00 24.7 2 Norte 8 Oeste 0 -- -- 85
2019-08-08 22:00:00 25.4 4 Sudoeste 10 Sudoeste 0 -- -- 85
2019-08-08 21:00:00 26.8 3 Sudoeste 5 Sudoeste 0 -- -- 74
2019-08-08 20:00:00 27.8 2 Sur 8 Sudoeste 0 -- -- 67
2019-08-08 19:00:00 28.8 4 Sudoeste 9 Sudoeste 0 -- -- 65
2019-08-08 18:00:00 28.5 6 Sudoeste 11 Sur 0 -- -- 70
2019-08-08 17:00:00 28 7 Sur 14 Sudoeste 0 -- -- 69
2019-08-08 16:00:00 29.1 9 Sudoeste 15 Sudoeste 0 -- -- 64
2019-08-08 15:00:00 29.6 7 Sudoeste 14 Sudoeste 0 -- -- 61
2019-08-08 14:00:00 29 8 Sur 11 Sudoeste 0 -- -- 62
2019-08-08 13:00:00 29 5 Sudoeste 9 Sur 0 -- -- 65
2019-08-08 12:00:00 28.5 5 Sur 13 Sudoeste 0 -- -- 65
2019-08-08 11:00:00 27.2 6 Sudoeste 14 Sudeste 0 -- -- 70
2019-08-08 10:00:00 26.6 3 Oeste 12 Sudeste 0 -- -- 68
2019-08-08 09:00:00 24.1 3 Sur 6 Sur 0 -- -- 80
2019-08-08 08:00:00 21.5 2 Noroeste 7 Norte 0 -- -- 87
2019-08-08 07:00:00 21.4 3 Noroeste 6 Sudeste 0 -- -- 87
2019-08-08 06:00:00 21.9 0 Calma 9 Sudoeste 0 -- -- 86
2019-08-08 05:00:00 23 3 Oeste 19 Sudeste 0 -- -- 84
2019-08-08 04:00:00 22.1 2 Este 5 Sudoeste 0 -- -- 83
2019-08-08 03:00:00 22.6 3 Sur 7 Sudoeste 2.2 -- -- 83
2019-08-08 02:00:00 23.3 3 Norte 12 Sudeste 0 -- -- 80
2019-08-08 01:00:00 23.8 0 Calma 8 Oeste 0 -- -- 77
2019-08-08 00:00:00 24.3 3 Oeste 6 Oeste 0 -- -- 75
2019-08-07 23:00:00 25.2 2 Sur 7 Sudoeste 0 -- -- 70
2019-08-07 22:00:00 26.4 2 Norte 16 Oeste 0 -- -- 64
2019-08-07 21:00:00 26.8 5 Oeste 12 Oeste 0 -- -- 62
2019-08-07 20:00:00 26.7 2 Este 9 Sur 0 -- -- 66
2019-08-07 19:00:00 28.6 4 Sudoeste 10 Sur 0 -- -- 53
2019-08-07 18:00:00 28.8 8 Sudeste 13 Sudeste 0 -- -- 51
2019-08-07 17:00:00 31 6 Sur 17 Sudoeste 0 -- -- 48
2019-08-07 16:00:00 30.6 7 Sudeste 22 Sudoeste 0 -- -- 50
2019-08-07 15:00:00 32.9 8 Oeste 17 Oeste 0 -- -- 38
2019-08-07 14:00:00 30.3 9 Sur 18 Oeste 0 -- -- 53
2019-08-07 13:00:00 31.6 8 Oeste 19 Oeste 0 -- -- 48
2019-08-07 12:00:00 32.2 9 Oeste 20 Noroeste 0 -- -- 47
2019-08-07 11:00:00 30 8 Oeste 15 Oeste 0 -- -- 54
2019-08-07 10:00:00 28.1 5 Sudoeste 10 Sudoeste 0 -- -- 65
2019-08-07 09:00:00 25.8 3 Sudoeste 6 Sudoeste 0 -- -- 76
2019-08-07 08:00:00 22.1 0 Calma 6 Nordeste 0 -- -- 81
2019-08-07 07:00:00 21.3 4 Norte 11 Noroeste 0 -- -- 78
2019-08-07 06:00:00 22.7 3 Sur 7 Sudoeste 0 -- -- 78
2019-08-07 05:00:00 22.5 3 Nordeste 10 Noroeste 0 -- -- 75
2019-08-07 04:00:00 23 3 Oeste 9 Noroeste 0 -- -- 72
2019-08-07 03:00:00 23.8 3 Noroeste 19 Sudoeste 0 -- -- 70
2019-08-07 02:00:00 24 5 Sudoeste 13 Sudoeste 0 -- -- 72
2019-08-07 01:00:00 23.9 3 Norte 5 Nordeste 0 -- -- 75
2019-08-07 00:00:00 25.1 3 Sudoeste 13 Noroeste 0 -- -- 72
2019-08-06 23:00:00 25.8 7 Oeste 11 Oeste 0 -- -- 71
2019-08-06 22:00:00 26.1 3 Sudoeste 9 Oeste 0 -- -- 67
2019-08-06 21:00:00 27 5 Oeste 10 Sudoeste 0 -- -- 58
2019-08-06 20:00:00 27.3 4 Sudeste 14 Oeste 0 -- -- 69
2019-08-06 19:00:00 29.9 9 Oeste 17 Sudoeste 0 -- -- 56
2019-08-06 18:00:00 29.5 10 Sudoeste 15 Sudoeste 0 -- -- 61
2019-08-06 17:00:00 29.3 8 Sudoeste 14 Sudoeste 0 -- -- 62
2019-08-06 16:00:00 29.4 7 Sudoeste 13 Sudoeste 0 -- -- 61
2019-08-06 15:00:00 29.4 6 Sur 11 Sur 0 -- -- 63
2019-08-06 14:00:00 28.4 8 Sur 13 Sur 0 -- -- 67
2019-08-06 13:00:00 28.4 8 Sur 12 Sur 0 -- -- 66
2019-08-06 12:00:00 27.9 6 Sur 16 Sur 0 -- -- 68
2019-08-06 11:00:00 26.2 9 Sudeste 13 Sudeste 0 -- -- 71
2019-08-06 10:00:00 26.2 6 Sudeste 8 Sudeste 0 -- -- 75
2019-08-06 09:00:00 24.6 4 Nordeste 10 Nordeste 0 -- -- 82
2019-08-06 08:00:00 22.1 4 Nordeste 6 Nordeste 0 -- -- 89
2019-08-06 07:00:00 22.5 4 Este 8 Sudeste 0 -- -- 89
2019-08-06 06:00:00 22.4 0 Calma 8 Noroeste 0 -- -- 87
2019-08-06 05:00:00 23.1 4 Oeste 8 Oeste 0 -- -- 87
2019-08-06 04:00:00 23.1 0 Calma 6 Noroeste 0 -- -- 87
2019-08-06 03:00:00 23.6 4 Noroeste 10 Oeste 0 -- -- 86
2019-08-06 02:00:00 23.5 2 Noroeste 8 Sudoeste 0 -- -- 85
2019-08-06 01:00:00 24.3 3 Sudoeste 6 Sudoeste 0 -- -- 84
2019-08-06 00:00:00 24.7 0 Calma 8 Oeste 0 -- -- 83
2019-08-05 23:00:00 24.7 3 Sudoeste 5 Sudoeste 0 -- -- 83
2019-08-05 22:00:00 25.4 3 Sudoeste 9 Sudoeste 0 -- -- 78
2019-08-05 21:00:00 -- -- -- -- -- -- -- -- --
2019-08-05 20:00:00 -- -- -- -- -- -- -- -- --
2019-08-05 19:00:00 -- -- -- -- -- -- -- -- --
2019-08-05 18:00:00 28.8 10 Sudoeste 17 Sudoeste 0 -- -- 59
2019-08-05 17:00:00 29.7 10 Sudoeste 15 Sudoeste 0 -- -- 59
2019-08-05 16:00:00 30.2 5 Sur 10 Sur 0 -- -- 56
2019-08-05 15:00:00 -- -- -- -- -- -- -- -- --
2019-08-05 14:00:00 28.7 8 Sur 17 Sur 0 -- -- 64
2019-08-05 13:00:00 27.8 9 Sur 32 Sudeste 0 -- -- 67
2019-08-05 12:00:00 25.8 17 Sudeste 24 Sudeste 0 -- -- 76
2019-08-05 11:00:00 28.9 4 Sur 16 Sur 0 -- -- 65
2019-08-05 10:00:00 28.7 3 Noroeste 9 Norte 0 -- -- 65
2019-08-05 09:00:00 25.5 0 Calma 9 Sudeste 0 -- -- 76
2019-08-05 08:00:00 22.1 5 Sudeste 9 Sudeste 0 -- -- 84
2019-08-05 07:00:00 21.3 4 Nordeste 8 Nordeste 0 -- -- 84
2019-08-05 06:00:00 21.6 0 Calma 6 Norte 0 -- -- 84
2019-08-05 05:00:00 22.3 0 Calma 5 Norte 0 -- -- 86
2019-08-05 04:00:00 22.6 3 Nordeste 7 Oeste 0 -- -- 86
2019-08-05 03:00:00 23.7 5 Oeste 9 Oeste 0 -- -- 85
2019-08-05 02:00:00 23.5 0 Calma 5 Sudoeste 0 -- -- 85
2019-08-05 01:00:00 23.8 2 Sudeste 6 Sudeste 0 -- -- 83
2019-08-05 00:00:00 24.3 3 Sur 9 Noroeste 0 -- -- 77
2019-08-04 23:00:00 25.2 6 Oeste 15 Oeste 0 -- -- 74
2019-08-04 22:00:00 26 6 Oeste 12 Oeste 0 -- -- 67
2019-08-04 21:00:00 26.2 4 Oeste 11 Noroeste 0 -- -- 62
2019-08-04 20:00:00 28.1 6 Oeste 16 Sur 0 -- -- 63
2019-08-04 19:00:00 28.1 9 Sudoeste 16 Sudoeste 0 -- -- 67
2019-08-04 18:00:00 28.5 6 Sudoeste 12 Sur 0 -- -- 65
2019-08-04 17:00:00 27.4 8 Sur 13 Sur 0 -- -- 72
2019-08-04 16:00:00 27.6 9 Sur 13 Sur 0 -- -- 70
2019-08-04 15:00:00 28 9 Sur 14 Sur 0 -- -- 66
2019-08-04 14:00:00 29 9 Sur 13 Sudoeste 0 -- -- 62
2019-08-04 13:00:00 30.2 8 Sudoeste 13 Sudoeste 0 -- -- 59
2019-08-04 12:00:00 30.4 6 Sudoeste 12 Sudeste 0 -- -- 59
2019-08-04 11:00:00 27.3 8 Sur 14 Sur 0 -- -- 70
2019-08-04 10:00:00 26 8 Sudeste 11 Sudeste 0 -- -- 77
2019-08-04 09:00:00 26 3 Sudeste 13 Oeste 0 -- -- 75
2019-08-04 08:00:00 24 9 Noroeste 19 Oeste 0 -- -- 81
2019-08-04 07:00:00 24.3 13 Oeste 21 Oeste 0 -- -- 74
2019-08-04 06:00:00 25.1 11 Oeste 23 Oeste 0 -- -- 68
2019-08-04 05:00:00 23.5 4 Noroeste 8 Noroeste 0 -- -- 78
2019-08-04 04:00:00 23.1 0 Calma 8 Oeste 0 -- -- 82
2019-08-04 03:00:00 23 3 Sudeste 6 Este 0 -- -- 84
2019-08-04 02:00:00 23.8 0 Calma 6 Noroeste 0 -- -- 82
2019-08-04 01:00:00 24.1 2 Este 9 Sudoeste 0 -- -- 84
2019-08-04 00:00:00 24.8 8 Sudoeste 13 Sudoeste 0 -- -- 84
2019-08-03 23:00:00 25.6 3 Sudoeste 4 Sudoeste 0 -- -- 73
2019-08-03 22:00:00 25.6 0 Calma 12 Oeste 0 -- -- 72
2019-08-03 21:00:00 26.8 6 Oeste 13 Oeste 0 -- -- 70
2019-08-03 20:00:00 28.3 7 Oeste 15 Oeste 0 -- -- 66
2019-08-03 19:00:00 28.1 9 Sudoeste 16 Sudoeste 0 -- -- 68
2019-08-03 18:00:00 28.8 8 Sudoeste 15 Sudoeste 0 -- -- 67
2019-08-03 17:00:00 28.9 7 Sudoeste 13 Sudoeste 0 -- -- 67
2019-08-03 16:00:00 28.2 9 Sur 12 Sur 0 -- -- 69
2019-08-03 15:00:00 28.8 9 Sur 13 Sur 0 -- -- 67
2019-08-03 14:00:00 29.4 8 Sur 15 Sur 0 -- -- 64
2019-08-03 13:00:00 30.1 8 Sudoeste 12 Sur 0 -- -- 60
2019-08-03 12:00:00 30.3 5 Sudoeste 11 Sur 0 -- -- 62
2019-08-03 11:00:00 28.4 6 Sur 9 Sur 0 -- -- 68
2019-08-03 10:00:00 27 4 Sudoeste 18 Sudeste 0 -- -- 78
2019-08-03 09:00:00 25.3 5 Sudeste 9 Sudeste 0 -- -- 80
2019-08-03 08:00:00 22.6 0 Calma 6 Norte 0 -- -- 85
2019-08-03 07:00:00 22.1 2 Este 4 Norte 0 -- -- 86
2019-08-03 06:00:00 22.3 0 Calma 5 Sur 0 -- -- 85
2019-08-03 05:00:00 22.5 0 Calma 5 Norte 0 -- -- 84
2019-08-03 04:00:00 22.8 2 Norte 4 Norte 0 -- -- 84
2019-08-03 03:00:00 22.8 2 Norte 5 Norte 0 -- -- 83
2019-08-03 02:00:00 22.9 2 Sudeste 8 Sudeste 0 -- -- 83
2019-08-03 01:00:00 23.3 2 Norte 5 Norte 0 -- -- 84
2019-08-03 00:00:00 24 0 Calma 4 Nordeste 0 -- -- 85
2019-08-02 23:00:00 24.1 0 Calma 3 Sudoeste 0 -- -- 84
2019-08-02 22:00:00 24.7 3 Sudoeste 6 Sudeste 0 -- -- 82
2019-08-02 21:00:00 25.7 4 Sur 11 Sudoeste 0 -- -- 75
2019-08-02 20:00:00 26.6 8 Sudoeste 15 Sudoeste 0 -- -- 71
2019-08-02 19:00:00 27.8 10 Sudoeste 15 Sudoeste 0 -- -- 70
2019-08-02 18:00:00 29 7 Sudoeste 13 Sudoeste 0 -- -- 65
2019-08-02 17:00:00 27.8 7 Sur 14 Sudeste 0 -- -- 67
2019-08-02 16:00:00 26.9 12 Sudeste 16 Sudeste 0 -- -- 72
2019-08-02 15:00:00 27.8 8 Sudeste 14 Sudeste 0 -- -- 69
2019-08-02 14:00:00 28.3 9 Sudeste 14 Sudeste 0 -- -- 67
2019-08-02 13:00:00 28 8 Sur 13 Sur 0 -- -- 68
2019-08-02 12:00:00 27.2 8 Sur 17 Sudeste 0 -- -- 72
2019-08-02 11:00:00 25.3 12 Sudeste 18 Sudeste 0 -- -- 77
2019-08-02 10:00:00 25.7 11 Sudeste 13 Sudeste 0 -- -- 74
2019-08-02 09:00:00 26.1 3 Oeste 10 Sur 0 -- -- 74
2019-08-02 08:00:00 23.1 6 Sur 15 Oeste 0 -- -- 82
2019-08-02 07:00:00 23.3 9 Oeste 15 Oeste 0 -- -- 80
2019-08-02 06:00:00 23.5 9 Oeste 15 Oeste 0 -- -- 78
2019-08-02 05:00:00 23.5 6 Oeste 11 Sudeste 0 -- -- 79
2019-08-02 04:00:00 23.8 6 Noroeste 12 Noroeste 0 -- -- 79
2019-08-02 03:00:00 23.2 3 Oeste 5 Oeste 0 -- -- 81
2019-08-02 02:00:00 22.7 3 Este 5 Sudeste 0 -- -- 82
2019-08-02 01:00:00 24.4 4 Noroeste 8 Oeste 0 -- -- 75
2019-08-02 00:00:00 24.5 3 Sudoeste 5 Sudoeste 0 -- -- 73
2019-08-01 23:00:00 24.3 0 Calma 4 Sudoeste 0 -- -- 72
2019-08-01 22:00:00 24.6 0 Calma 7 Noroeste 0 -- -- 73
2019-08-01 21:00:00 26 4 Sudoeste 14 Oeste 0 -- -- 70
2019-08-01 20:00:00 27.4 6 Sudoeste 17 Sudoeste 0 -- -- 67
2019-08-01 19:00:00 28.8 7 Sudoeste 13 Sudoeste 0 -- -- 58
2019-08-01 18:00:00 29.8 8 Sudoeste 17 Sur 0 -- -- 55
2019-08-01 17:00:00 29.3 10 Sudoeste 18 Sudoeste 0 -- -- 54
2019-08-01 16:00:00 29.2 11 Sudoeste 21 Sudoeste 0 -- -- 53
2019-08-01 15:00:00 29.8 8 Sudoeste 17 Sudoeste 0 -- -- 51
2019-08-01 14:00:00 29.3 11 Sudoeste 15 Sudoeste 0 -- -- 57
2019-08-01 13:00:00 31.3 6 Sudoeste 10 Sudoeste 0 -- -- 52
2019-08-01 12:00:00 28.4 5 Sur 11 Sudoeste 0 -- -- 63
2019-08-01 11:00:00 28 5 Sudoeste 13 Sur 0 -- -- 64
2019-08-01 10:00:00 27.5 5 Sudoeste 13 Nordeste 0 -- -- 65
2019-08-01 09:00:00 23.6 6 Nordeste 10 Nordeste 0 -- -- 83
2019-08-01 08:00:00 22.1 0 Calma 5 Nordeste 0 -- -- 89
2019-08-01 07:00:00 21.4 2 Este 4 Sudeste 0 -- -- 89
2019-08-01 06:00:00 21.8 3 Oeste 6 Oeste 0 -- -- 88
2019-08-01 05:00:00 21.9 2 Sudoeste 6 Sudoeste 0 -- -- 88
2019-08-01 04:00:00 21.8 5 Este 6 Este 0 -- -- 87
2019-08-01 03:00:00 22.4 3 Este 7 Nordeste 0 -- -- 85
2019-08-01 02:00:00 23.1 3 Nordeste 9 Sudoeste 0 -- -- 82
2019-08-01 01:00:00 24 4 Oeste 14 Oeste 0 -- -- 79
2019-08-01 00:00:00 24.4 9 Oeste 15 Oeste 0 -- -- 78
2019-07-31 23:00:00 24.8 8 Oeste 12 Oeste 0 -- -- 76
2019-07-31 22:00:00 25.2 6 Oeste 14 Oeste 0 -- -- 73
2019-07-31 21:00:00 26.1 8 Oeste 22 Oeste 0 -- -- 70
2019-07-31 20:00:00 27.7 14 Oeste 26 Oeste 0 -- -- 65
2019-07-31 19:00:00 29.6 10 Oeste 25 Oeste 0 -- -- 55
2019-07-31 18:00:00 30.4 11 Oeste 25 Oeste 0 -- -- 51
2019-07-31 17:00:00 31.1 13 Oeste 26 Oeste 0 -- -- 48
2019-07-31 16:00:00 30.9 10 Oeste 23 Oeste 0 -- -- 49
2019-07-31 15:00:00 29.4 11 Sudoeste 21 Sudoeste 0 -- -- 54
2019-07-31 14:00:00 29.8 10 Sudoeste 21 Oeste 0 -- -- 52
2019-07-31 13:00:00 30.8 10 Sudoeste 17 Sudoeste 0 -- -- 50
2019-07-31 12:00:00 28 11 Sudoeste 21 Sudoeste 0 -- -- 63
2019-07-31 11:00:00 28 6 Sur 15 Sur 0 -- -- 63
2019-07-31 10:00:00 28.2 2 Nordeste 19 Oeste 0 -- -- 62
2019-07-31 09:00:00 23.9 8 Noroeste 12 Oeste 0 -- -- 82
2019-07-31 08:00:00 22.6 3 Noroeste 12 Sur 0 -- -- 85
2019-07-31 07:00:00 22.4 3 Este 11 Oeste 0 -- -- 84
2019-07-31 06:00:00 23.2 5 Oeste 15 Oeste 0 -- -- 83
2019-07-31 05:00:00 23.1 7 Oeste 28 Sur 0 -- -- 84
2019-07-31 04:00:00 23.2 5 Norte 8 Norte 0 -- -- 81
2019-07-31 03:00:00 23 2 Nordeste 13 Sur 0 -- -- 81
2019-07-31 02:00:00 23.8 8 Sudoeste 12 Sudoeste 0 -- -- 80
2019-07-31 01:00:00 23.7 4 Nordeste 13 Sudeste 0 -- -- 79
2019-07-31 00:00:00 24.7 5 Oeste 22 Sudeste 0 -- -- 69
2019-07-30 23:00:00 23.8 5 Este 14 Oeste 0 -- -- 69
2019-07-30 22:00:00 23.9 4 Norte 27 Sudeste 0 -- -- 76
2019-07-30 21:00:00 24.8 5 Sur 9 Sudoeste 0 -- -- 75
2019-07-30 20:00:00 26.5 6 Sudoeste 16 Sudoeste 0 -- -- 69
2019-07-30 19:00:00 27 7 Sudoeste 19 Sudoeste 0 -- -- 66
2019-07-30 18:00:00 27.9 6 Sur 12 Sudoeste 0 -- -- 62
2019-07-30 17:00:00 28.5 6 Sudoeste 13 Sur 0 -- -- 61
2019-07-30 16:00:00 27.9 8 Sur 11 Sudoeste 0 -- -- 61
2019-07-30 15:00:00 28 7 Sur 12 Sudoeste 0 -- -- 62
2019-07-30 14:00:00 28.9 6 Sur 12 Sudoeste 0 -- -- 58
2019-07-30 13:00:00 28.6 5 Sudoeste 14 Sudoeste 0 -- -- 58
2019-07-30 12:00:00 27.9 9 Sudoeste 13 Sudoeste 0 -- -- 61
2019-07-30 11:00:00 28.3 5 Sur 9 Oeste 0 -- -- 59
2019-07-30 10:00:00 26.7 6 Oeste 10 Oeste 0 -- -- 67
2019-07-30 09:00:00 23 3 Sudoeste 5 Sudoeste 0 -- -- 79
2019-07-30 08:00:00 20.1 0 Calma 4 Nordeste 0 -- -- 90
2019-07-30 07:00:00 19.2 0 Calma 5 Sur 0 -- -- 91
2019-07-30 06:00:00 19.4 2 Sur 5 Este 0 -- -- 90
2019-07-30 05:00:00 20.3 3 Norte 11 Noroeste 0 -- -- 90
2019-07-30 04:00:00 20.5 4 Oeste 11 Noroeste 0 -- -- 91
2019-07-30 03:00:00 20.3 3 Norte 15 Sur 0 -- -- 90
2019-07-30 02:00:00 20 9 Sudeste 13 Sudeste 0 -- -- 90
2019-07-30 01:00:00 20.5 2 Sudeste 10 Sudeste 0 -- -- 89
2019-07-30 00:00:00 20.9 8 Sudeste 13 Sudeste 0 -- -- 88
2019-07-29 23:00:00 21.8 4 Sudeste 12 Sudoeste 0 -- -- 83
2019-07-29 22:00:00 23.3 6 Sudoeste 11 Sudoeste 0 -- -- 78
2019-07-29 21:00:00 24.5 2 Este 8 Noroeste 0 -- -- 69
2019-07-29 20:00:00 26.3 4 Sudoeste 11 Sur 0 -- -- 66
2019-07-29 19:00:00 27.1 5 Sur 12 Sudoeste 0 -- -- 62
2019-07-29 18:00:00 28 4 Sudoeste 13 Sudoeste 0 -- -- 55
2019-07-29 17:00:00 26.7 6 Sudoeste 12 Sur 0 -- -- 68
2019-07-29 16:00:00 25.3 9 Sur 13 Sur 0 -- -- 72
2019-07-29 15:00:00 25.6 8 Sur 10 Sur 0 -- -- 70
2019-07-29 14:00:00 26.2 8 Sur 14 Sur 0 -- -- 67
2019-07-29 13:00:00 26.2 8 Sur 12 Sur 0 -- -- 68
2019-07-29 12:00:00 24.8 7 Sudeste 12 Sudeste 0 -- -- 72
2019-07-29 11:00:00 24.9 7 Sur 11 Sur 0 -- -- 70
2019-07-29 10:00:00 24.3 5 Sudoeste 9 Sur 0 -- -- 73
2019-07-29 09:00:00 23.5 3 Norte 7 Sudeste 0 -- -- 78
2019-07-29 08:00:00 19.9 2 Sudeste 6 Norte 0 -- -- 89
2019-07-29 07:00:00 19.1 2 Este 7 Este 0 -- -- 91
2019-07-29 06:00:00 19.2 2 Este 8 Sudeste 0 -- -- 90
2019-07-29 05:00:00 19.4 4 Sudeste 6 Sudeste 0 -- -- 89
2019-07-29 04:00:00 19.7 4 Este 5 Sudeste 0 -- -- 86
2019-07-29 03:00:00 20.8 3 Noroeste 8 Oeste 0 -- -- 83
2019-07-29 02:00:00 21.2 3 Oeste 7 Oeste 0 -- -- 82
2019-07-29 01:00:00 20.9 0 Calma 5 Norte 0 -- -- 84
2019-07-29 00:00:00 21.3 2 Norte 8 Sudoeste 0 -- -- 82
2019-07-28 23:00:00 21.6 4 Sudoeste 9 Sudoeste 0 -- -- 80
2019-07-28 22:00:00 22.2 0 Calma 11 Noroeste 0 -- -- 76
2019-07-28 21:00:00 23.9 6 Oeste 12 Sudoeste 0 -- -- 70
2019-07-28 20:00:00 24.3 8 Sudoeste 14 Sudoeste 0 -- -- 70
2019-07-28 19:00:00 25.3 9 Sudoeste 14 Sudoeste 0 -- -- 65
2019-07-28 18:00:00 25.7 8 Sudoeste 14 Sudoeste 0 -- -- 64
2019-07-28 17:00:00 25.4 8 Sudoeste 18 Sudoeste 0 -- -- 66
2019-07-28 16:00:00 25.4 9 Sudoeste 30 Oeste 0 -- -- 64
2019-07-28 15:00:00 27.3 17 Oeste 35 Sudoeste 0 -- -- 57
2019-07-28 14:00:00 27 8 Sudoeste 16 Sur 0 -- -- 58
2019-07-28 13:00:00 27.1 7 Sur 12 Sudoeste 0 -- -- 60
2019-07-28 12:00:00 26.8 7 Sur 12 Sudeste 0 -- -- 62
2019-07-28 11:00:00 25.1 8 Sudeste 11 Sur 0 -- -- 66
2019-07-28 10:00:00 25.4 4 Sur 13 Oeste 0 -- -- 66
2019-07-28 09:00:00 25 7 Oeste 17 Oeste 0 -- -- 68
2019-07-28 08:00:00 21.7 4 Noroeste 17 Oeste 0 -- -- 83
2019-07-28 07:00:00 20.6 5 Noroeste 10 Noroeste 0 -- -- 84
2019-07-28 06:00:00 20.9 3 Noroeste 22 Oeste 0 -- -- 82
2019-07-28 05:00:00 21.5 10 Oeste 19 Oeste 0 -- -- 80
2019-07-28 04:00:00 21.6 15 Oeste 26 Oeste 0 -- -- 80
2019-07-28 03:00:00 22.1 15 Oeste 29 Oeste 0 -- -- 78
2019-07-28 02:00:00 22.8 15 Oeste 28 Oeste 0 -- -- 72
2019-07-28 01:00:00 24.1 16 Oeste 26 Oeste 0 -- -- 65
2019-07-28 00:00:00 25.5 17 Oeste 36 Oeste 0 -- -- 58
2019-07-27 23:00:00 24.2 18 Oeste 41 Oeste 0 -- -- 66
2019-07-26 12:00:00 -- -- -- -- -- -- -- -- --
2019-07-26 11:00:00 27.1 16 Oeste 35 Oeste 0 -- -- 69
2019-07-26 10:00:00 26.6 17 Oeste 33 Oeste 0 -- -- 73
2019-07-26 09:00:00 26.2 13 Oeste 24 Oeste 0 -- -- 69
2019-07-26 08:00:00 22.5 12 Oeste 16 Noroeste 0 -- -- 73
2019-07-26 07:00:00 20.7 2 Norte 5 Norte 0 -- -- 84
2019-07-26 06:00:00 21.2 0 Calma 4 Norte 0 -- -- 82
2019-07-26 05:00:00 21.6 0 Calma 8 Nordeste 0 -- -- 82
2019-07-26 04:00:00 23.1 4 Noroeste 9 Oeste 0 -- -- 81
2019-07-26 03:00:00 24.3 8 Noroeste 18 Oeste 0 -- -- 80
2019-07-26 02:00:00 23.6 2 Sudoeste 7 Noroeste 0 -- -- 73
2019-07-26 01:00:00 24.3 4 Noroeste 8 Sudoeste 0 -- -- 71
2019-07-26 00:00:00 24.6 3 Nordeste 4 Norte 0 -- -- 70
2019-07-25 23:00:00 25.4 0 Calma 6 Noroeste 0 -- -- 68
2019-07-25 22:00:00 26.4 3 Noroeste 14 Noroeste 0 -- -- 65
2019-07-25 21:00:00 27.9 6 Oeste 17 Oeste 0 -- -- 61
2019-07-25 20:00:00 29.9 9 Oeste 18 Oeste 0 -- -- 55
2019-07-25 19:00:00 30.9 8 Oeste 18 Noroeste 0 -- -- 52
2019-07-25 18:00:00 30.3 8 Sudoeste 18 Sudoeste 0 -- -- 57
2019-07-25 17:00:00 30 9 Sudoeste 15 Sudoeste 0 -- -- 60
2019-07-25 16:00:00 30 9 Sudoeste 18 Sudoeste 0 -- -- 61
2019-07-25 15:00:00 29.8 11 Sudoeste 18 Sudoeste 0 -- -- 63
2019-07-25 14:00:00 32.2 6 Sudoeste 13 Sudoeste 0 -- -- 55
2019-07-25 13:00:00 33.1 5 Sudoeste 12 Sur 0 -- -- 51
2019-07-25 12:00:00 29.8 8 Sur 12 Sur 0 -- -- 62
2019-07-25 11:00:00 30.5 6 Sur 8 Sur 0 -- -- 50
2019-07-25 10:00:00 29.9 3 Sudoeste 6 Sudoeste 0 -- -- 56
2019-07-25 09:00:00 27.5 2 Nordeste 4 Nordeste 0 -- -- 62
2019-07-25 08:00:00 23.4 0 Calma 6 Noroeste 0 -- -- 77
2019-07-25 07:00:00 23.1 6 Noroeste 13 Oeste 0 -- -- 77
2019-07-25 06:00:00 22.8 0 Calma 6 Nordeste 0 -- -- 82
2019-07-25 05:00:00 23.3 3 Nordeste 10 Nordeste 0 -- -- 82
2019-07-25 04:00:00 23.6 4 Oeste 9 Sudoeste 0 -- -- 81
2019-07-25 03:00:00 23.6 2 Nordeste 5 Norte 0 -- -- 80
2019-07-25 02:00:00 23.9 0 Calma 3 Nordeste 0 -- -- 79
2019-07-25 01:00:00 23.9 3 Nordeste 6 Nordeste 0 -- -- 78
2019-07-25 00:00:00 24.9 3 Nordeste 5 Nordeste 0 -- -- 75
2019-07-24 23:00:00 25.4 0 Calma 4 Sur 0 -- -- 72
2019-07-24 22:00:00 26 3 Sur 5 Sur 0 -- -- 70
2019-07-24 21:00:00 26.9 3 Este 12 Sudoeste 0 -- -- 66
2019-07-24 20:00:00 28.3 7 Sudoeste 13 Sudoeste 0 -- -- 62
2019-07-24 19:00:00 29.3 7 Sudoeste 18 Sudoeste 0 -- -- 57
2019-07-24 18:00:00 29.9 8 Sudoeste 16 Sudoeste 0 -- -- 57
2019-07-24 17:00:00 29.5 11 Sudoeste 19 Sudoeste 0 -- -- 59
2019-07-24 16:00:00 29.9 10 Sudoeste 18 Sudoeste 0 -- -- 59
2019-07-24 15:00:00 29.5 9 Sudoeste 20 Sudoeste 0 -- -- 66
2019-07-24 14:00:00 30.2 11 Sudoeste 17 Sudoeste 0 -- -- 63
2019-07-24 13:00:00 32.3 6 Sur 10 Sudoeste 0 -- -- 56
2019-07-24 12:00:00 32 6 Sur 15 Sudoeste 0 -- -- 57
2019-07-24 11:00:00 29.8 7 Sudoeste 15 Sudoeste 0 -- -- 63
2019-07-24 10:00:00 28.7 5 Oeste 13 Sudoeste 0 -- -- 65
2019-07-24 09:00:00 27 3 Noroeste 6 Nordeste 0 -- -- 66
2019-07-24 08:00:00 22.6 4 Norte 8 Norte 0 -- -- 75
2019-07-24 07:00:00 22.4 3 Sudeste 7 Este 0 -- -- 81
2019-07-24 06:00:00 22.8 5 Sudeste 13 Oeste 0 -- -- 81
2019-07-24 05:00:00 23.7 5 Sudoeste 14 Sudoeste 0 -- -- 77
2019-07-24 04:00:00 22.9 0 Calma 4 Nordeste 0 -- -- 75
2019-07-24 03:00:00 22.6 5 Nordeste 9 Nordeste 0 -- -- 75
2019-07-24 02:00:00 23.3 0 Calma 7 Norte 0 -- -- 76
2019-07-24 01:00:00 24.2 3 Noroeste 8 Noroeste 0 -- -- 72
2019-07-24 00:00:00 24.4 0 Calma 9 Norte 0 -- -- 73
2019-07-23 23:00:00 24.7 3 Nordeste 12 Noroeste 0 -- -- 73
2019-07-23 22:00:00 25.3 5 Oeste 15 Sudoeste 0 -- -- 76
2019-07-23 21:00:00 26.5 8 Oeste 18 Oeste 0 -- -- 73
2019-07-23 20:00:00 27.7 7 Sudoeste 15 Sudoeste 0 -- -- 66
2019-07-23 19:00:00 28 8 Sudoeste 22 Oeste 0 -- -- 65
2019-07-23 18:00:00 27.2 10 Sudoeste 22 Oeste 0 -- -- 69
2019-07-23 17:00:00 28.3 12 Sudoeste 21 Sudoeste 0 -- -- 65
2019-07-23 16:00:00 29.1 8 Sudoeste 21 Sudoeste 0 -- -- 64
2019-07-23 15:00:00 30 9 Oeste 25 Oeste 0 -- -- 60
2019-07-23 14:00:00 29.5 11 Sudoeste 25 Sudoeste 0 -- -- 63
2019-07-23 13:00:00 29.8 10 Sudoeste 21 Sudoeste 0 -- -- 62
2019-07-23 12:00:00 29.5 6 Sur 12 Sudoeste 0 -- -- 65
2019-07-23 11:00:00 28.6 7 Sur 11 Sudoeste 0 -- -- 67
2019-07-23 10:00:00 28 4 Sur 9 Sudoeste 0 -- -- 71
2019-07-23 09:00:00 25.4 3 Sudeste 11 Norte 0 -- -- 81
2019-07-23 08:00:00 23.5 4 Noroeste 12 Oeste 0 -- -- 87
2019-07-23 07:00:00 23.7 5 Noroeste 10 Oeste 0 -- -- 87
2019-07-23 06:00:00 23.1 0 Calma 4 Oeste 0 -- -- 85
2019-07-23 05:00:00 23.9 2 Este 9 Oeste 0 -- -- 84
2019-07-23 04:00:00 24.8 5 Noroeste 51 Sudoeste 0 -- -- 81
2019-07-23 03:00:00 23.9 3 Sur 13 Nordeste 0 -- -- 84
2019-07-23 02:00:00 24.1 4 Nordeste 8 Norte 0 -- -- 84
2019-07-23 01:00:00 24.9 3 Oeste 15 Oeste 0 -- -- 81
2019-07-23 00:00:00 25.3 8 Oeste 18 Oeste 0 -- -- 80
2019-07-22 23:00:00 25.7 10 Oeste 19 Oeste 0 -- -- 79
2019-07-22 22:00:00 25.7 9 Oeste 12 Oeste 0 -- -- 79
2019-07-22 21:00:00 26.3 4 Sudoeste 11 Sudoeste 0 -- -- 77
2019-07-22 20:00:00 27.9 6 Sudoeste 17 Sudoeste 0 -- -- 70
2019-07-22 19:00:00 29.2 11 Oeste 24 Oeste 0 -- -- 65
2019-07-22 18:00:00 29.9 14 Oeste 27 Sudoeste 0 -- -- 61
2019-07-22 17:00:00 29.4 10 Sudoeste 18 Sudoeste 0 -- -- 61
2019-07-22 16:00:00 29.7 11 Sudoeste 18 Sudoeste 0 -- -- 59
2019-07-22 15:00:00 29.8 11 Sudoeste 17 Sudoeste 0 -- -- 61
2019-07-22 14:00:00 31.1 6 Sudoeste 17 Sudoeste 0 -- -- 55
2019-07-22 13:00:00 30.2 8 Sudoeste 15 Sudoeste 0 -- -- 58
2019-07-22 12:00:00 29 9 Sudoeste 14 Sudoeste 0 -- -- 66
2019-07-22 11:00:00 28.8 5 Sudoeste 10 Sudoeste 0 -- -- 67
2019-07-22 10:00:00 27 4 Sudoeste 12 Oeste 0 -- -- 76
2019-07-22 09:00:00 24.6 5 Sudoeste 10 Sur 0 -- -- 88
2019-07-22 08:00:00 23.1 2 Este 9 Sur 0 -- -- 90
2019-07-22 07:00:00 23.2 4 Nordeste 10 Noroeste 0 -- -- 90
2019-07-22 06:00:00 23.7 5 Oeste 11 Oeste 0 -- -- 87
2019-07-22 05:00:00 23.7 5 Oeste 10 Oeste 0 -- -- 85
2019-07-22 04:00:00 23.7 3 Noroeste 5 Noroeste 0 -- -- 86
2019-07-22 03:00:00 23.2 3 Nordeste 9 Sudeste 0 -- -- 88
2019-07-22 02:00:00 23.4 5 Sudeste 8 Noroeste 0 -- -- 85
2019-07-22 01:00:00 24.5 8 Sudoeste 17 Sur 0 -- -- 82
2019-07-22 00:00:00 25.9 10 Noroeste 19 Noroeste 0 -- -- 76
2019-07-21 23:00:00 26.2 3 Sudoeste 6 Oeste 0 -- -- 74
2019-07-21 22:00:00 26.4 2 Oeste 6 Oeste 0 -- -- 72
2019-07-21 21:00:00 27.1 3 Sudoeste 15 Oeste 0 -- -- 72
2019-07-21 20:00:00 27.9 6 Sudoeste 15 Oeste 0 -- -- 69
2019-07-21 19:00:00 30.1 6 Oeste 17 Oeste 0 -- -- 59
2019-07-21 18:00:00 29 9 Sudoeste 17 Sudoeste 0 -- -- 63
2019-07-21 17:00:00 28.3 9 Sudoeste 17 Sudoeste 0 -- -- 68
2019-07-21 16:00:00 29.1 10 Sudoeste 17 Sudoeste 0 -- -- 63
2019-07-21 15:00:00 29.4 10 Sudoeste 18 Sudoeste 0 -- -- 62
2019-07-21 14:00:00 30 8 Sudoeste 16 Sudoeste 0 -- -- 61
2019-07-21 13:00:00 30.2 8 Sudoeste 15 Sudoeste 0 -- -- 60
2019-07-21 12:00:00 28.8 6 Sur 13 Sudoeste 0 -- -- 64
2019-07-21 11:00:00 29.3 6 Sur 12 Sudoeste 0 -- -- 58
2019-07-21 10:00:00 29.5 5 Oeste 10 Sudoeste 0 -- -- 58
2019-07-21 09:00:00 27 0 Calma 7 Oeste 0 -- -- 65
2019-07-21 08:00:00 23.4 3 Noroeste 6 Noroeste 0 -- -- 78
2019-07-21 07:00:00 22.5 4 Este 13 Sudeste 0 -- -- 83
2019-07-21 06:00:00 23 3 Nordeste 18 Oeste 0 -- -- 74
2019-07-21 05:00:00 23.2 6 Sudoeste 10 Sur 0 -- -- 74
2019-07-21 04:00:00 23.1 0 Calma 11 Oeste 0 -- -- 74
2019-07-21 03:00:00 24.2 6 Oeste 14 Oeste 0 -- -- 73
2019-07-21 02:00:00 24.2 4 Sudoeste 8 Este 0 -- -- 72
2019-07-21 01:00:00 24.8 3 Norte 11 Oeste 0 -- -- 68
2019-07-21 00:00:00 25.8 4 Oeste 11 Noroeste 0 -- -- 64
2019-07-20 23:00:00 26 4 Noroeste 11 Oeste 0 -- -- 65
2019-07-20 22:00:00 26.2 4 Noroeste 13 Oeste 0 -- -- 65
2019-07-20 21:00:00 27.1 4 Oeste 9 Oeste 0 -- -- 62
2019-07-20 20:00:00 28.5 6 Noroeste 10 Sudoeste 0 -- -- 59
2019-07-20 19:00:00 29 6 Oeste 13 Oeste 0 -- -- 59
2019-07-20 18:00:00 29.1 8 Sudoeste 15 Sudoeste 0 -- -- 58
2019-07-20 17:00:00 28.7 9 Sudoeste 17 Sudoeste 0 -- -- 60
2019-07-20 16:00:00 28.9 7 Sudoeste 17 Sudoeste 0 -- -- 61
2019-07-20 15:00:00 28.9 9 Sudoeste 15 Sudoeste 0 -- -- 60
2019-07-20 14:00:00 30.2 7 Sudoeste 14 Sudoeste 0 -- -- 56
2019-07-20 13:00:00 30 6 Sur 13 Sudoeste 0 -- -- 56
2019-07-20 12:00:00 30 6 Sudoeste 16 Oeste 0 -- -- 54
2019-07-20 11:00:00 29.9 9 Oeste 19 Sudoeste 0 -- -- 53
2019-07-20 10:00:00 28.7 8 Oeste 15 Oeste 0 -- -- 56
2019-07-20 09:00:00 25.1 0 Calma 5 Norte 0 -- -- 66
2019-07-20 08:00:00 22.1 2 Este 5 Nordeste 0 -- -- 74
2019-07-20 07:00:00 21.7 0 Calma 6 Nordeste 0 -- -- 75
2019-07-20 06:00:00 21.8 0 Calma 7 Oeste 0 -- -- 76
2019-07-20 05:00:00 22.4 3 Norte 10 Oeste 0 -- -- 72
2019-07-20 04:00:00 22.6 3 Oeste 6 Oeste 0 -- -- 73
2019-07-20 03:00:00 23.1 3 Norte 11 Noroeste 0 -- -- 71
2019-07-20 02:00:00 23 2 Norte 5 Norte 0 -- -- 74
2019-07-20 01:00:00 23.4 3 Norte 11 Oeste 0 -- -- 74
2019-07-20 00:00:00 23.5 3 Sur 7 Sudoeste 0 -- -- 76
2019-07-19 23:00:00 24.3 2 Oeste 21 Sudoeste 0 -- -- 70
2019-07-19 22:00:00 25 9 Oeste 22 Oeste 0 -- -- 67
2019-07-19 21:00:00 26.1 10 Oeste 22 Oeste 0 -- -- 61
2019-07-19 20:00:00 27.8 11 Oeste 21 Oeste 0 -- -- 56
2019-07-19 19:00:00 29.1 5 Oeste 18 Sudoeste 0 -- -- 52
2019-07-19 18:00:00 29.6 10 Oeste 19 Oeste 0 -- -- 47
2019-07-19 17:00:00 28.7 6 Sudoeste 17 Sudoeste 0 -- -- 51
2019-07-19 16:00:00 28.3 9 Sudoeste 17 Sudoeste 0 -- -- 54
2019-07-19 15:00:00 29.4 8 Sudoeste 16 Sudoeste 0 -- -- 53
2019-07-19 14:00:00 28.7 8 Sudoeste 17 Sudoeste 0 -- -- 59
2019-07-19 13:00:00 28.2 10 Sudoeste 16 Sudoeste 0 -- -- 62
2019-07-19 12:00:00 29.5 6 Sur 14 Sudoeste 0 -- -- 54
2019-07-19 11:00:00 26.6 10 Sudoeste 14 Sudoeste 0 -- -- 65
2019-07-19 10:00:00 27.9 5 Sudoeste 9 Sudoeste 0 -- -- 61
2019-07-19 09:00:00 25.9 0 Calma 6 Norte 0 -- -- 69
2019-07-19 08:00:00 22.2 0 Calma 6 Nordeste 0 -- -- 79
2019-07-19 07:00:00 20.9 4 Nordeste 7 Nordeste 0 -- -- 83
2019-07-19 06:00:00 21 5 Nordeste 7 Norte 0 -- -- 82
2019-07-19 05:00:00 21.4 0 Calma 6 Noroeste 0 -- -- 82
2019-07-19 04:00:00 21.1 0 Calma 6 Noroeste 0 -- -- 80
2019-07-19 03:00:00 22.1 4 Noroeste 7 Noroeste 0 -- -- 78
2019-07-19 02:00:00 22.5 4 Sudoeste 8 Sudoeste 0 -- -- 77
2019-07-19 01:00:00 22.4 2 Norte 6 Sur 0 -- -- 77
2019-07-19 00:00:00 22.7 3 Sudeste 7 Noroeste 0 -- -- 76